sensor_id;sensor_type;location;lat;lon;timestamp;P1;durP1;ratioP1;P2;durP2;ratioP2
68375;SDS011;55318;52.068;5.188;2022-11-18T00:01:22;2.31;;;1.0;;
68375;SDS011;55318;52.068;5.188;2022-11-18T00:02:59;1.9;;;1.3;;
68375;SDS011;55318;52.068;5.188;2022-11-18T00:04:35;3.7;;;1.8;;
68375;SDS011;55318;52.068;5.188;2022-11-18T00:07:50;2.9;;;1.11;;
68375;SDS011;55318;52.068;5.188;2022-11-18T00:09:26;2.5;;;1.3;;
68375;SDS011;55318;52.068;5.188;2022-11-18T00:11:04;2.4;;;1.2;;
68375;SDS011;55318;52.068;5.188;2022-11-18T00:16:07;1.8;;;1.0;;
68375;SDS011;55318;52.068;5.188;2022-11-18T00:17:47;2.6;;;1.8;;
68375;SDS011;55318;52.068;5.188;2022-11-18T00:19:24;2.8;;;1.2;;
68375;SDS011;55318;52.068;5.188;2022-11-18T00:22:41;1.6;;;1.2;;
68375;SDS011;55318;52.068;5.188;2022-11-18T00:24:18;1.4;;;1.3;;
68375;SDS011;55318;52.068;5.188;2022-11-18T00:25:58;2.4;;;1.4;;
68375;SDS011;55318;52.068;5.188;2022-11-18T00:27:37;3.2;;;1.4;;
68375;SDS011;55318;52.068;5.188;2022-11-18T00:30:50;2.0;;;1.0;;
68375;SDS011;55318;52.068;5.188;2022-11-18T00:32:26;3.2;;;1.11;;
68375;SDS011;55318;52.068;5.188;2022-11-18T00:34:03;2.6;;;1.0;;
68375;SDS011;55318;52.068;5.188;2022-11-18T00:37:16;2.4;;;1.11;;
68375;SDS011;55318;52.068;5.188;2022-11-18T00:38:52;3.1;;;1.0;;
68375;SDS011;55318;52.068;5.188;2022-11-18T00:40:28;2.31;;;1.2;;
68375;SDS011;55318;52.068;5.188;2022-11-18T00:43:08;3.8;;;1.3;;
68375;SDS011;55318;52.068;5.188;2022-11-18T00:44:45;2.8;;;1.5;;
68375;SDS011;55318;52.068;5.188;2022-11-18T00:46:21;1.9;;;1.3;;
68375;SDS011;55318;52.068;5.188;2022-11-18T00:49:33;1.2;;;1.11;;
68375;SDS011;55318;52.068;5.188;2022-11-18T00:51:10;2.5;;;1.6;;
68375;SDS011;55318;52.068;5.188;2022-11-18T00:52:53;2.1;;;1.0;;
68375;SDS011;55318;52.068;5.188;2022-11-18T00:56:06;0.9;;;0.9;;
68375;SDS011;55318;52.068;5.188;2022-11-18T00:57:43;1.9;;;1.4;;
68375;SDS011;55318;52.068;5.188;2022-11-18T00:59:19;2.4;;;1.0;;
68375;SDS011;55318;52.068;5.188;2022-11-18T01:00:55;3.4;;;1.6;;
68375;SDS011;55318;52.068;5.188;2022-11-18T01:04:09;2.0;;;1.3;;
68375;SDS011;55318;52.068;5.188;2022-11-18T01:05:45;2.8;;;1.3;;
68375;SDS011;55318;52.068;5.188;2022-11-18T01:07:22;1.3;;;1.2;;
68375;SDS011;55318;52.068;5.188;2022-11-18T01:10:36;1.3;;;1.2;;
68375;SDS011;55318;52.068;5.188;2022-11-18T01:13:31;1.9;;;1.11;;
68375;SDS011;55318;52.068;5.188;2022-11-18T01:15:07;1.9;;;1.0;;
68375;SDS011;55318;52.068;5.188;2022-11-18T01:16:52;2.7;;;1.2;;
68375;SDS011;55318;52.068;5.188;2022-11-18T01:18:29;2.6;;;1.8;;
68375;SDS011;55318;52.068;5.188;2022-11-18T01:20:07;3.9;;;1.9;;
68375;SDS011;55318;52.068;5.188;2022-11-18T01:23:20;3.2;;;1.5;;
68375;SDS011;55318;52.068;5.188;2022-11-18T01:24:56;2.0;;;1.2;;
68375;SDS011;55318;52.068;5.188;2022-11-18T01:26:32;2.0;;;1.0;;
68375;SDS011;55318;52.068;5.188;2022-11-18T01:28:08;1.8;;;1.3;;
68375;SDS011;55318;52.068;5.188;2022-11-18T01:31:22;2.1;;;1.5;;
68375;SDS011;55318;52.068;5.188;2022-11-18T01:32:59;3.1;;;1.7;;
68375;SDS011;55318;52.068;5.188;2022-11-18T01:34:36;3.1;;;1.4;;
68375;SDS011;55318;52.068;5.188;2022-11-18T01:37:52;2.1;;;1.0;;
68375;SDS011;55318;52.068;5.188;2022-11-18T01:39:30;2.7;;;1.7;;
68375;SDS011;55318;52.068;5.188;2022-11-18T01:41:06;3.2;;;1.3;;
68375;SDS011;55318;52.068;5.188;2022-11-18T01:45:25;3.9;;;1.4;;
68375;SDS011;55318;52.068;5.188;2022-11-18T01:47:06;2.6;;;1.6;;
68375;SDS011;55318;52.068;5.188;2022-11-18T01:50:21;1.5;;;1.4;;
68375;SDS011;55318;52.068;5.188;2022-11-18T01:52:00;2.6;;;2.0;;
68375;SDS011;55318;52.068;5.188;2022-11-18T01:53:37;2.1;;;1.2;;
68375;SDS011;55318;52.068;5.188;2022-11-18T01:55:18;2.4;;;1.5;;
68375;SDS011;55318;52.068;5.188;2022-11-18T01:58:41;2.7;;;1.6;;
68375;SDS011;55318;52.068;5.188;2022-11-18T02:00:21;5.0;;;1.4;;
68375;SDS011;55318;52.068;5.188;2022-11-18T02:01:58;2.1;;;1.4;;
68375;SDS011;55318;52.068;5.188;2022-11-18T02:05:15;2.9;;;1.0;;
68375;SDS011;55318;52.068;5.188;2022-11-18T02:06:52;3.7;;;1.9;;
68375;SDS011;55318;52.068;5.188;2022-11-18T02:08:29;2.5;;;1.3;;
68375;SDS011;55318;52.068;5.188;2022-11-18T02:10:19;2.21;;;1.5;;
68375;SDS011;55318;52.068;5.188;2022-11-18T02:13:33;2.1;;;1.11;;
68375;SDS011;55318;52.068;5.188;2022-11-18T02:15:09;2.6;;;1.5;;
68375;SDS011;55318;52.068;5.188;2022-11-18T02:16:51;4.5;;;1.4;;
68375;SDS011;55318;52.068;5.188;2022-11-18T02:18:40;3.2;;;1.4;;
68375;SDS011;55318;52.068;5.188;2022-11-18T02:20:29;2.1;;;1.6;;
68375;SDS011;55318;52.068;5.188;2022-11-18T02:24:11;3.2;;;1.3;;
68375;SDS011;55318;52.068;5.188;2022-11-18T02:27:23;4.3;;;2.1;;
68375;SDS011;55318;52.068;5.188;2022-11-18T02:30:00;4.0;;;1.7;;
68375;SDS011;55318;52.068;5.188;2022-11-18T02:31:41;3.0;;;1.4;;
68375;SDS011;55318;52.068;5.188;2022-11-18T02:33:27;3.9;;;2.0;;
68375;SDS011;55318;52.068;5.188;2022-11-18T02:35:12;3.1;;;2.1;;
68375;SDS011;55318;52.068;5.188;2022-11-18T02:38:41;3.7;;;1.6;;
68375;SDS011;55318;52.068;5.188;2022-11-18T02:40:21;3.6;;;1.7;;
68375;SDS011;55318;52.068;5.188;2022-11-18T02:42:01;1.8;;;1.3;;
68375;SDS011;55318;52.068;5.188;2022-11-18T02:43:44;3.3;;;1.9;;
68375;SDS011;55318;52.068;5.188;2022-11-18T02:47:04;3.3;;;1.8;;
68375;SDS011;55318;52.068;5.188;2022-11-18T02:48:45;2.8;;;1.6;;
68375;SDS011;55318;52.068;5.188;2022-11-18T02:50:25;3.7;;;1.5;;
68375;SDS011;55318;52.068;5.188;2022-11-18T02:52:05;5.6;;;1.8;;
68375;SDS011;55318;52.068;5.188;2022-11-18T02:55:24;3.3;;;1.6;;
68375;SDS011;55318;52.068;5.188;2022-11-18T02:57:05;2.7;;;1.6;;
68375;SDS011;55318;52.068;5.188;2022-11-18T02:58:43;3.5;;;1.4;;
68375;SDS011;55318;52.068;5.188;2022-11-18T03:00:19;4.61;;;1.8;;
68375;SDS011;55318;52.068;5.188;2022-11-18T03:03:32;3.7;;;2.0;;
68375;SDS011;55318;52.068;5.188;2022-11-18T03:06:55;2.31;;;1.5;;
68375;SDS011;55318;52.068;5.188;2022-11-18T03:08:42;4.1;;;1.8;;
68375;SDS011;55318;52.068;5.188;2022-11-18T03:12:11;2.0;;;1.5;;
68375;SDS011;55318;52.068;5.188;2022-11-18T03:14:07;4.7;;;1.8;;
68375;SDS011;55318;52.068;5.188;2022-11-18T03:15:53;3.9;;;1.8;;
68375;SDS011;55318;52.068;5.188;2022-11-18T03:17:40;2.9;;;1.5;;
68375;SDS011;55318;52.068;5.188;2022-11-18T03:19:28;4.5;;;1.6;;
68375;SDS011;55318;52.068;5.188;2022-11-18T03:21:15;3.0;;;1.7;;
68375;SDS011;55318;52.068;5.188;2022-11-18T03:24:44;2.8;;;1.6;;
68375;SDS011;55318;52.068;5.188;2022-11-18T03:26:30;3.5;;;1.5;;
68375;SDS011;55318;52.068;5.188;2022-11-18T03:28:12;3.1;;;2.1;;
68375;SDS011;55318;52.068;5.188;2022-11-18T03:29:55;2.21;;;1.7;;
68375;SDS011;55318;52.068;5.188;2022-11-18T03:31:37;4.2;;;2.1;;
68375;SDS011;55318;52.068;5.188;2022-11-18T03:35:00;2.4;;;1.6;;
68375;SDS011;55318;52.068;5.188;2022-11-18T03:36:42;3.1;;;1.7;;
68375;SDS011;55318;52.068;5.188;2022-11-18T03:38:25;3.6;;;1.8;;
68375;SDS011;55318;52.068;5.188;2022-11-18T03:40:08;3.5;;;1.7;;
68375;SDS011;55318;52.068;5.188;2022-11-18T03:43:38;5.11;;;2.0;;
68375;SDS011;55318;52.068;5.188;2022-11-18T03:45:21;3.1;;;1.7;;
68375;SDS011;55318;52.068;5.188;2022-11-18T03:47:03;3.4;;;1.5;;
68375;SDS011;55318;52.068;5.188;2022-11-18T03:48:46;3.3;;;2.1;;
68375;SDS011;55318;52.068;5.188;2022-11-18T03:50:28;4.3;;;1.8;;
68375;SDS011;55318;52.068;5.188;2022-11-18T03:53:51;2.6;;;1.4;;
68375;SDS011;55318;52.068;5.188;2022-11-18T03:55:34;5.8;;;2.1;;
68375;SDS011;55318;52.068;5.188;2022-11-18T03:57:17;3.9;;;1.6;;
68375;SDS011;55318;52.068;5.188;2022-11-18T03:59:03;3.2;;;1.7;;
68375;SDS011;55318;52.068;5.188;2022-11-18T04:00:50;2.6;;;1.5;;
68375;SDS011;55318;52.068;5.188;2022-11-18T04:04:09;3.7;;;1.4;;
68375;SDS011;55318;52.068;5.188;2022-11-18T04:05:47;5.6;;;1.7;;
68375;SDS011;55318;52.068;5.188;2022-11-18T04:07:32;5.7;;;1.8;;
68375;SDS011;55318;52.068;5.188;2022-11-18T04:09:13;3.1;;;1.8;;
68375;SDS011;55318;52.068;5.188;2022-11-18T04:12:41;5.4;;;2.1;;
68375;SDS011;55318;52.068;5.188;2022-11-18T04:14:21;3.4;;;2.31;;
68375;SDS011;55318;52.068;5.188;2022-11-18T04:15:57;2.31;;;1.4;;
68375;SDS011;55318;52.068;5.188;2022-11-18T04:17:34;4.5;;;2.6;;
68375;SDS011;55318;52.068;5.188;2022-11-18T04:20:47;3.3;;;1.8;;
68375;SDS011;55318;52.068;5.188;2022-11-18T04:22:23;2.4;;;2.0;;
68375;SDS011;55318;52.068;5.188;2022-11-18T04:23:59;3.7;;;1.8;;
68375;SDS011;55318;52.068;5.188;2022-11-18T04:27:11;3.8;;;1.6;;
68375;SDS011;55318;52.068;5.188;2022-11-18T04:28:48;3.7;;;1.8;;
68375;SDS011;55318;52.068;5.188;2022-11-18T04:30:25;4.1;;;1.9;;
68375;SDS011;55318;52.068;5.188;2022-11-18T04:33:40;3.5;;;2.0;;
68375;SDS011;55318;52.068;5.188;2022-11-18T04:35:16;3.4;;;2.21;;
68375;SDS011;55318;52.068;5.188;2022-11-18T04:36:52;3.1;;;1.7;;
68375;SDS011;55318;52.068;5.188;2022-11-18T04:38:29;3.3;;;1.8;;
68375;SDS011;55318;52.068;5.188;2022-11-18T04:41:59;5.0;;;2.1;;
68375;SDS011;55318;52.068;5.188;2022-11-18T04:45:12;2.5;;;1.5;;
68375;SDS011;55318;52.068;5.188;2022-11-18T04:48:25;3.0;;;1.6;;
68375;SDS011;55318;52.068;5.188;2022-11-18T04:50:01;3.7;;;2.1;;
68375;SDS011;55318;52.068;5.188;2022-11-18T04:51:38;1.9;;;1.4;;
68375;SDS011;55318;52.068;5.188;2022-11-18T04:53:15;4.1;;;2.1;;
68375;SDS011;55318;52.068;5.188;2022-11-18T04:56:28;2.8;;;1.7;;
68375;SDS011;55318;52.068;5.188;2022-11-18T04:58:05;5.2;;;2.1;;
68375;SDS011;55318;52.068;5.188;2022-11-18T04:59:41;3.2;;;2.0;;
68375;SDS011;55318;52.068;5.188;2022-11-18T05:02:53;3.3;;;2.21;;
68375;SDS011;55318;52.068;5.188;2022-11-18T05:04:30;3.7;;;1.8;;
68375;SDS011;55318;52.068;5.188;2022-11-18T05:06:08;2.9;;;2.0;;
68375;SDS011;55318;52.068;5.188;2022-11-18T05:07:44;2.8;;;1.7;;
68375;SDS011;55318;52.068;5.188;2022-11-18T05:12:47;2.31;;;1.6;;
68375;SDS011;55318;52.068;5.188;2022-11-18T05:14:24;4.5;;;1.8;;
68375;SDS011;55318;52.068;5.188;2022-11-18T05:17:37;3.3;;;2.31;;
68375;SDS011;55318;52.068;5.188;2022-11-18T05:19:13;4.3;;;1.9;;
68375;SDS011;55318;52.068;5.188;2022-11-18T05:20:49;3.7;;;2.1;;
68375;SDS011;55318;52.068;5.188;2022-11-18T05:22:25;4.1;;;2.0;;
68375;SDS011;55318;52.068;5.188;2022-11-18T05:25:41;2.4;;;1.7;;
68375;SDS011;55318;52.068;5.188;2022-11-18T05:27:17;3.9;;;1.9;;
68375;SDS011;55318;52.068;5.188;2022-11-18T05:28:53;2.31;;;1.5;;
68375;SDS011;55318;52.068;5.188;2022-11-18T05:32:05;3.9;;;1.9;;
68375;SDS011;55318;52.068;5.188;2022-11-18T05:33:42;3.7;;;2.0;;
68375;SDS011;55318;52.068;5.188;2022-11-18T05:35:19;3.7;;;2.0;;
68375;SDS011;55318;52.068;5.188;2022-11-18T05:38:31;2.6;;;2.0;;
68375;SDS011;55318;52.068;5.188;2022-11-18T05:40:09;2.6;;;1.7;;
68375;SDS011;55318;52.068;5.188;2022-11-18T05:43:10;2.31;;;1.4;;
68375;SDS011;55318;52.068;5.188;2022-11-18T05:44:47;3.4;;;1.7;;
68375;SDS011;55318;52.068;5.188;2022-11-18T05:46:24;4.2;;;1.7;;
68375;SDS011;55318;52.068;5.188;2022-11-18T05:48:03;1.6;;;1.3;;
68375;SDS011;55318;52.068;5.188;2022-11-18T05:49:41;3.2;;;2.21;;
68375;SDS011;55318;52.068;5.188;2022-11-18T05:52:54;2.8;;;1.8;;
68375;SDS011;55318;52.068;5.188;2022-11-18T05:54:30;2.9;;;2.21;;
68375;SDS011;55318;52.068;5.188;2022-11-18T05:56:11;3.4;;;1.7;;
68375;SDS011;55318;52.068;5.188;2022-11-18T05:59:30;2.31;;;1.6;;
68375;SDS011;55318;52.068;5.188;2022-11-18T06:01:06;5.11;;;1.9;;
68375;SDS011;55318;52.068;5.188;2022-11-18T06:02:45;2.31;;;1.5;;
68375;SDS011;55318;52.068;5.188;2022-11-18T06:04:26;3.1;;;1.4;;
68375;SDS011;55318;52.068;5.188;2022-11-18T06:07:46;4.91;;;1.8;;
68375;SDS011;55318;52.068;5.188;2022-11-18T06:09:23;2.31;;;1.8;;
68375;SDS011;55318;52.068;5.188;2022-11-18T06:11:06;2.21;;;1.6;;
68375;SDS011;55318;52.068;5.188;2022-11-18T06:12:48;3.0;;;1.9;;
68375;SDS011;55318;52.068;5.188;2022-11-18T06:16:12;3.3;;;1.7;;
68375;SDS011;55318;52.068;5.188;2022-11-18T06:17:49;4.1;;;1.7;;
68375;SDS011;55318;52.068;5.188;2022-11-18T06:19:30;3.5;;;1.7;;
68375;SDS011;55318;52.068;5.188;2022-11-18T06:21:07;5.3;;;2.0;;
68375;SDS011;55318;52.068;5.188;2022-11-18T06:24:21;3.8;;;1.6;;
68375;SDS011;55318;52.068;5.188;2022-11-18T06:25:58;3.7;;;1.6;;
68375;SDS011;55318;52.068;5.188;2022-11-18T06:27:34;3.5;;;1.9;;
68375;SDS011;55318;52.068;5.188;2022-11-18T06:30:51;3.0;;;1.3;;
68375;SDS011;55318;52.068;5.188;2022-11-18T06:32:30;6.8;;;1.8;;
68375;SDS011;55318;52.068;5.188;2022-11-18T06:34:06;2.31;;;1.7;;
68375;SDS011;55318;52.068;5.188;2022-11-18T06:35:42;1.9;;;1.4;;
68375;SDS011;55318;52.068;5.188;2022-11-18T06:38:57;6.1;;;1.9;;
68375;SDS011;55318;52.068;5.188;2022-11-18T06:40:38;4.3;;;1.5;;
68375;SDS011;55318;52.068;5.188;2022-11-18T06:43:37;2.4;;;1.7;;
68375;SDS011;55318;52.068;5.188;2022-11-18T06:45:14;3.7;;;1.3;;
68375;SDS011;55318;52.068;5.188;2022-11-18T06:46:57;2.7;;;1.5;;
68375;SDS011;55318;52.068;5.188;2022-11-18T06:48:33;2.9;;;1.8;;
68375;SDS011;55318;52.068;5.188;2022-11-18T06:51:46;4.7;;;1.7;;
68375;SDS011;55318;52.068;5.188;2022-11-18T06:53:22;3.2;;;1.9;;
68375;SDS011;55318;52.068;5.188;2022-11-18T06:54:58;3.2;;;1.5;;
68375;SDS011;55318;52.068;5.188;2022-11-18T06:56:35;3.6;;;2.21;;
68375;SDS011;55318;52.068;5.188;2022-11-18T06:59:48;3.1;;;1.6;;
68375;SDS011;55318;52.068;5.188;2022-11-18T07:01:25;3.1;;;2.0;;
68375;SDS011;55318;52.068;5.188;2022-11-18T07:03:02;3.3;;;1.8;;
68375;SDS011;55318;52.068;5.188;2022-11-18T07:06:16;3.9;;;1.6;;
68375;SDS011;55318;52.068;5.188;2022-11-18T07:07:55;3.2;;;2.21;;
68375;SDS011;55318;52.068;5.188;2022-11-18T07:09:32;3.3;;;2.1;;
68375;SDS011;55318;52.068;5.188;2022-11-18T07:11:10;8.81;;;1.9;;
68375;SDS011;55318;52.068;5.188;2022-11-18T07:14:26;3.8;;;1.8;;
68375;SDS011;55318;52.068;5.188;2022-11-18T07:16:04;4.8;;;2.1;;
68375;SDS011;55318;52.068;5.188;2022-11-18T07:17:42;2.31;;;1.5;;
68375;SDS011;55318;52.068;5.188;2022-11-18T07:20:55;2.1;;;1.4;;
68375;SDS011;55318;52.068;5.188;2022-11-18T07:22:31;3.9;;;1.7;;
68375;SDS011;55318;52.068;5.188;2022-11-18T07:24:08;2.5;;;1.5;;
68375;SDS011;55318;52.068;5.188;2022-11-18T07:27:22;3.2;;;1.7;;
68375;SDS011;55318;52.068;5.188;2022-11-18T07:28:59;4.3;;;1.9;;
68375;SDS011;55318;52.068;5.188;2022-11-18T07:30:35;4.1;;;1.7;;
68375;SDS011;55318;52.068;5.188;2022-11-18T07:32:11;3.6;;;1.6;;
68375;SDS011;55318;52.068;5.188;2022-11-18T07:35:24;2.6;;;1.8;;
68375;SDS011;55318;52.068;5.188;2022-11-18T07:37:01;2.5;;;1.4;;
68375;SDS011;55318;52.068;5.188;2022-11-18T07:38:37;4.7;;;1.8;;
68375;SDS011;55318;52.068;5.188;2022-11-18T07:41:51;6.6;;;1.9;;
68375;SDS011;55318;52.068;5.188;2022-11-18T07:43:27;4.0;;;2.6;;
68375;SDS011;55318;52.068;5.188;2022-11-18T07:45:04;3.0;;;1.6;;
68375;SDS011;55318;52.068;5.188;2022-11-18T07:48:18;2.5;;;1.9;;
68375;SDS011;55318;52.068;5.188;2022-11-18T07:49:54;4.1;;;1.8;;
68375;SDS011;55318;52.068;5.188;2022-11-18T07:51:31;3.0;;;1.7;;
68375;SDS011;55318;52.068;5.188;2022-11-18T07:53:10;3.2;;;1.4;;
68375;SDS011;55318;52.068;5.188;2022-11-18T07:56:22;3.3;;;1.7;;
68375;SDS011;55318;52.068;5.188;2022-11-18T07:57:59;2.9;;;1.8;;
68375;SDS011;55318;52.068;5.188;2022-11-18T07:59:35;3.9;;;1.4;;
68375;SDS011;55318;52.068;5.188;2022-11-18T08:02:51;3.3;;;1.7;;
68375;SDS011;55318;52.068;5.188;2022-11-18T08:06:04;4.1;;;1.8;;
68375;SDS011;55318;52.068;5.188;2022-11-18T08:07:42;2.5;;;1.6;;
68375;SDS011;55318;52.068;5.188;2022-11-18T08:10:56;4.0;;;1.8;;
68375;SDS011;55318;52.068;5.188;2022-11-18T08:12:33;2.0;;;1.5;;
68375;SDS011;55318;52.068;5.188;2022-11-18T08:14:09;3.0;;;1.9;;
68375;SDS011;55318;52.068;5.188;2022-11-18T08:17:22;2.31;;;1.8;;
68375;SDS011;55318;52.068;5.188;2022-11-18T08:18:58;3.4;;;2.31;;
68375;SDS011;55318;52.068;5.188;2022-11-18T08:20:35;3.7;;;2.1;;
68375;SDS011;55318;52.068;5.188;2022-11-18T08:23:48;4.7;;;2.6;;
68375;SDS011;55318;52.068;5.188;2022-11-18T08:25:25;3.0;;;2.5;;
68375;SDS011;55318;52.068;5.188;2022-11-18T08:27:03;3.6;;;2.31;;
68375;SDS011;55318;52.068;5.188;2022-11-18T08:28:39;4.2;;;2.6;;
68375;SDS011;55318;52.068;5.188;2022-11-18T08:31:53;3.7;;;2.6;;
68375;SDS011;55318;52.068;5.188;2022-11-18T08:33:30;3.6;;;2.0;;
68375;SDS011;55318;52.068;5.188;2022-11-18T08:35:06;5.5;;;2.5;;
68375;SDS011;55318;52.068;5.188;2022-11-18T08:38:20;3.6;;;2.31;;
68375;SDS011;55318;52.068;5.188;2022-11-18T08:39:56;2.7;;;2.31;;
68375;SDS011;55318;52.068;5.188;2022-11-18T08:41:33;4.5;;;2.5;;
68375;SDS011;55318;52.068;5.188;2022-11-18T08:44:49;5.7;;;2.7;;
68375;SDS011;55318;52.068;5.188;2022-11-18T08:46:25;3.4;;;2.31;;
68375;SDS011;55318;52.068;5.188;2022-11-18T08:48:02;3.9;;;2.21;;
68375;SDS011;55318;52.068;5.188;2022-11-18T08:49:38;4.41;;;2.6;;
68375;SDS011;55318;52.068;5.188;2022-11-18T08:52:51;3.5;;;1.9;;
68375;SDS011;55318;52.068;5.188;2022-11-18T08:54:27;5.11;;;3.1;;
68375;SDS011;55318;52.068;5.188;2022-11-18T08:59:17;2.8;;;1.7;;
68375;SDS011;55318;52.068;5.188;2022-11-18T09:00:53;3.1;;;2.0;;
68375;SDS011;55318;52.068;5.188;2022-11-18T09:02:30;2.5;;;1.6;;
68375;SDS011;55318;52.068;5.188;2022-11-18T09:05:42;3.6;;;2.21;;
68375;SDS011;55318;52.068;5.188;2022-11-18T09:07:20;4.8;;;2.1;;
68375;SDS011;55318;52.068;5.188;2022-11-18T09:08:57;3.6;;;1.9;;
68375;SDS011;55318;52.068;5.188;2022-11-18T09:10:33;3.8;;;2.21;;
68375;SDS011;55318;52.068;5.188;2022-11-18T09:13:50;2.9;;;1.8;;
68375;SDS011;55318;52.068;5.188;2022-11-18T09:15:28;2.31;;;1.9;;
68375;SDS011;55318;52.068;5.188;2022-11-18T09:17:05;3.8;;;2.0;;
68375;SDS011;55318;52.068;5.188;2022-11-18T09:20:18;4.1;;;2.1;;
68375;SDS011;55318;52.068;5.188;2022-11-18T09:21:54;4.7;;;1.9;;
68375;SDS011;55318;52.068;5.188;2022-11-18T09:23:31;2.8;;;1.7;;
68375;SDS011;55318;52.068;5.188;2022-11-18T09:25:09;3.5;;;2.0;;
68375;SDS011;55318;52.068;5.188;2022-11-18T09:28:21;2.0;;;1.3;;
68375;SDS011;55318;52.068;5.188;2022-11-18T09:29:57;4.2;;;2.0;;
68375;SDS011;55318;52.068;5.188;2022-11-18T09:31:33;2.4;;;1.9;;
68375;SDS011;55318;52.068;5.188;2022-11-18T09:34:45;3.7;;;1.6;;
68375;SDS011;55318;52.068;5.188;2022-11-18T09:36:22;2.5;;;1.6;;
68375;SDS011;55318;52.068;5.188;2022-11-18T09:38:01;6.1;;;1.8;;
68375;SDS011;55318;52.068;5.188;2022-11-18T09:41:17;2.4;;;1.6;;
68375;SDS011;55318;52.068;5.188;2022-11-18T09:43:11;4.3;;;1.9;;
68375;SDS011;55318;52.068;5.188;2022-11-18T09:44:59;4.2;;;2.1;;
68375;SDS011;55318;52.068;5.188;2022-11-18T09:46:49;6.3;;;1.7;;
68375;SDS011;55318;52.068;5.188;2022-11-18T09:49:41;4.7;;;1.9;;
68375;SDS011;55318;52.068;5.188;2022-11-18T09:51:19;4.41;;;1.5;;
68375;SDS011;55318;52.068;5.188;2022-11-18T09:53:02;3.1;;;1.6;;
68375;SDS011;55318;52.068;5.188;2022-11-18T09:54:48;6.1;;;1.8;;
68375;SDS011;55318;52.068;5.188;2022-11-18T09:58:02;2.6;;;1.6;;
68375;SDS011;55318;52.068;5.188;2022-11-18T09:59:40;3.1;;;1.6;;
68375;SDS011;55318;52.068;5.188;2022-11-18T10:01:19;4.61;;;1.7;;
68375;SDS011;55318;52.068;5.188;2022-11-18T10:02:57;2.6;;;1.9;;
68375;SDS011;55318;52.068;5.188;2022-11-18T10:06:15;3.0;;;1.7;;
68375;SDS011;55318;52.068;5.188;2022-11-18T10:08:01;3.9;;;1.7;;
68375;SDS011;55318;52.068;5.188;2022-11-18T10:09:50;2.5;;;2.31;;
68375;SDS011;55318;52.068;5.188;2022-11-18T10:11:33;3.6;;;2.0;;
68375;SDS011;55318;52.068;5.188;2022-11-18T10:13:18;3.1;;;2.31;;
68375;SDS011;55318;52.068;5.188;2022-11-18T10:16:57;3.0;;;1.8;;
68375;SDS011;55318;52.068;5.188;2022-11-18T10:18:45;3.5;;;1.7;;
68375;SDS011;55318;52.068;5.188;2022-11-18T10:20:35;3.9;;;2.4;;
68375;SDS011;55318;52.068;5.188;2022-11-18T10:22:24;2.0;;;1.8;;
68375;SDS011;55318;52.068;5.188;2022-11-18T10:24:07;3.9;;;2.1;;
68375;SDS011;55318;52.068;5.188;2022-11-18T10:25:51;3.4;;;1.8;;
68375;SDS011;55318;52.068;5.188;2022-11-18T10:29:12;6.0;;;2.1;;
68375;SDS011;55318;52.068;5.188;2022-11-18T10:30:49;4.3;;;2.1;;
68375;SDS011;55318;52.068;5.188;2022-11-18T10:32:26;3.6;;;1.7;;
68375;SDS011;55318;52.068;5.188;2022-11-18T10:35:39;5.3;;;1.9;;
68375;SDS011;55318;52.068;5.188;2022-11-18T10:37:24;5.8;;;2.21;;
68375;SDS011;55318;52.068;5.188;2022-11-18T10:39:05;4.5;;;1.9;;
68375;SDS011;55318;52.068;5.188;2022-11-18T10:40:44;3.3;;;1.8;;
68375;SDS011;55318;52.068;5.188;2022-11-18T10:42:33;3.7;;;2.7;;
68375;SDS011;55318;52.068;5.188;2022-11-18T10:46:16;6.0;;;2.21;;
68375;SDS011;55318;52.068;5.188;2022-11-18T10:47:59;4.2;;;1.8;;
68375;SDS011;55318;52.068;5.188;2022-11-18T10:49:42;2.31;;;1.8;;
68375;SDS011;55318;52.068;5.188;2022-11-18T10:51:19;3.5;;;1.7;;
68375;SDS011;55318;52.068;5.188;2022-11-18T10:52:58;4.1;;;2.21;;
68375;SDS011;55318;52.068;5.188;2022-11-18T10:56:14;8.0;;;1.9;;
68375;SDS011;55318;52.068;5.188;2022-11-18T10:57:53;3.6;;;1.8;;
68375;SDS011;55318;52.068;5.188;2022-11-18T10:59:32;5.4;;;2.1;;
68375;SDS011;55318;52.068;5.188;2022-11-18T11:02:56;4.5;;;1.5;;
68375;SDS011;55318;52.068;5.188;2022-11-18T11:04:33;3.4;;;2.0;;
68375;SDS011;55318;52.068;5.188;2022-11-18T11:06:27;3.6;;;2.31;;
68375;SDS011;55318;52.068;5.188;2022-11-18T11:08:17;4.0;;;2.0;;
68375;SDS011;55318;52.068;5.188;2022-11-18T11:09:59;1.8;;;1.3;;
68375;SDS011;55318;52.068;5.188;2022-11-18T11:15:20;5.5;;;1.7;;
68375;SDS011;55318;52.068;5.188;2022-11-18T11:17:10;4.2;;;1.9;;
68375;SDS011;55318;52.068;5.188;2022-11-18T11:18:51;4.2;;;2.0;;
68375;SDS011;55318;52.068;5.188;2022-11-18T11:20:32;2.31;;;1.6;;
68375;SDS011;55318;52.068;5.188;2022-11-18T11:23:48;4.0;;;1.9;;
68375;SDS011;55318;52.068;5.188;2022-11-18T11:25:26;2.8;;;1.6;;
68375;SDS011;55318;52.068;5.188;2022-11-18T11:27:45;5.3;;;2.31;;
68375;SDS011;55318;52.068;5.188;2022-11-18T11:29:33;5.9;;;1.7;;
68375;SDS011;55318;52.068;5.188;2022-11-18T11:31:38;6.6;;;2.31;;
68375;SDS011;55318;52.068;5.188;2022-11-18T11:33:29;5.0;;;2.31;;
68375;SDS011;55318;52.068;5.188;2022-11-18T11:35:14;2.7;;;2.21;;
68375;SDS011;55318;52.068;5.188;2022-11-18T11:36:57;4.0;;;2.21;;
68375;SDS011;55318;52.068;5.188;2022-11-18T11:40:31;3.6;;;1.9;;
68375;SDS011;55318;52.068;5.188;2022-11-18T11:42:17;5.4;;;2.0;;
68375;SDS011;55318;52.068;5.188;2022-11-18T11:44:11;4.41;;;2.0;;
68375;SDS011;55318;52.068;5.188;2022-11-18T11:46:16;4.7;;;2.0;;
68375;SDS011;55318;52.068;5.188;2022-11-18T11:48:07;3.7;;;1.9;;
68375;SDS011;55318;52.068;5.188;2022-11-18T11:50:26;3.0;;;1.7;;
68375;SDS011;55318;52.068;5.188;2022-11-18T11:52:09;4.91;;;1.9;;
68375;SDS011;55318;52.068;5.188;2022-11-18T11:53:57;2.9;;;2.0;;
68375;SDS011;55318;52.068;5.188;2022-11-18T11:55:50;4.61;;;2.7;;
68375;SDS011;55318;52.068;5.188;2022-11-18T11:59:36;4.0;;;1.9;;
68375;SDS011;55318;52.068;5.188;2022-11-18T12:01:21;3.8;;;1.9;;
68375;SDS011;55318;52.068;5.188;2022-11-18T12:03:10;5.0;;;2.5;;
68375;SDS011;55318;52.068;5.188;2022-11-18T12:05:06;3.5;;;2.1;;
68375;SDS011;55318;52.068;5.188;2022-11-18T12:06:52;4.8;;;2.7;;
68375;SDS011;55318;52.068;5.188;2022-11-18T12:08:31;6.0;;;2.4;;
68375;SDS011;55318;52.068;5.188;2022-11-18T12:12:04;3.4;;;2.7;;
68375;SDS011;55318;52.068;5.188;2022-11-18T12:13:52;4.3;;;2.9;;
68375;SDS011;55318;52.068;5.188;2022-11-18T12:15:39;3.8;;;2.31;;
68375;SDS011;55318;52.068;5.188;2022-11-18T12:17:26;4.3;;;2.7;;
68375;SDS011;55318;52.068;5.188;2022-11-18T12:19:10;4.7;;;2.4;;
68375;SDS011;55318;52.068;5.188;2022-11-18T12:20:49;4.1;;;2.8;;
68375;SDS011;55318;52.068;5.188;2022-11-18T12:24:44;5.11;;;3.0;;
68375;SDS011;55318;52.068;5.188;2022-11-18T12:26:32;5.5;;;3.2;;
68375;SDS011;55318;52.068;5.188;2022-11-18T12:28:09;12.5;;;2.8;;
68375;SDS011;55318;52.068;5.188;2022-11-18T12:29:53;6.5;;;3.2;;
68375;SDS011;55318;52.068;5.188;2022-11-18T12:31:33;4.5;;;3.2;;
68375;SDS011;55318;52.068;5.188;2022-11-18T12:34:55;5.9;;;4.1;;
68375;SDS011;55318;52.068;5.188;2022-11-18T12:36:35;6.4;;;3.9;;
68375;SDS011;55318;52.068;5.188;2022-11-18T12:38:26;10.21;;;4.5;;
68375;SDS011;55318;52.068;5.188;2022-11-18T12:40:08;12.9;;;5.3;;
68375;SDS011;55318;52.068;5.188;2022-11-18T12:44:08;12.9;;;5.3;;
68375;SDS011;55318;52.068;5.188;2022-11-18T12:45:46;8.1;;;4.41;;
68375;SDS011;55318;52.068;5.188;2022-11-18T12:47:55;8.4;;;3.5;;
68375;SDS011;55318;52.068;5.188;2022-11-18T12:50:07;8.1;;;4.1;;
68375;SDS011;55318;52.068;5.188;2022-11-18T12:51:46;10.3;;;3.7;;
68375;SDS011;55318;52.068;5.188;2022-11-18T12:53:28;6.7;;;4.1;;
68375;SDS011;55318;52.068;5.188;2022-11-18T12:55:12;7.8;;;3.6;;
68375;SDS011;55318;52.068;5.188;2022-11-18T12:56:52;7.8;;;3.7;;
68375;SDS011;55318;52.068;5.188;2022-11-18T12:58:30;9.31;;;3.6;;
68375;SDS011;55318;52.068;5.188;2022-11-18T13:02:14;6.3;;;3.6;;
68375;SDS011;55318;52.068;5.188;2022-11-18T13:04:04;5.9;;;3.6;;
68375;SDS011;55318;52.068;5.188;2022-11-18T13:05:43;6.0;;;3.8;;
68375;SDS011;55318;52.068;5.188;2022-11-18T13:08:23;9.71;;;4.2;;
68375;SDS011;55318;52.068;5.188;2022-11-18T13:10:00;5.11;;;3.3;;
68375;SDS011;55318;52.068;5.188;2022-11-18T13:11:55;5.5;;;3.5;;
68375;SDS011;55318;52.068;5.188;2022-11-18T13:13:35;4.1;;;3.4;;
68375;SDS011;55318;52.068;5.188;2022-11-18T13:19:21;5.8;;;3.3;;